Time;durP1;ratioP1;P1;durP2;ratioP2;P2;SDS_P1;SDS_P2;PMS_P1;PMS_P2;Temp;Humidity;BMP_temperature;BMP_pressure;BME280_temperature;BME280_humidity;BME280_pressure;Samples;Min_cycle;Max_cycle;Signal;HPM_P1;HPM_P2
2021/12/04 00:00:41;;;;;;;;;;;12.80;99.90;;;;;;5054746;28;20376;-78
2021/12/04 00:03:07;;;;;;;;;;;12.80;99.90;;;;;;5055133;28;20373;-79
2021/12/04 00:05:33;;;;;;;;;;;12.90;99.90;;;;;;5055120;28;19913;-78
2021/12/04 00:07:58;;;;;;;;;;;12.90;99.90;;;;;;5054957;28;20221;-79
2021/12/04 00:10:28;;;;;;;;;;;12.90;99.90;;;;;;5052814;28;19921;-79
2021/12/04 00:12:54;;;;;;;;;;;12.90;99.90;;;;;;5053430;28;19909;-80
2021/12/04 00:15:20;;;;;;;;;;;13.00;99.90;;;;;;5055079;28;19959;-79
2021/12/04 00:17:45;;;;;;;;;;;12.90;99.90;;;;;;5054851;28;19908;-79
2021/12/04 00:20:11;;;;;;;;;;;13.00;99.90;;;;;;5054374;28;19955;-79
2021/12/04 00:22:37;;;;;;;;;;;12.90;99.90;;;;;;5053476;28;19909;-80
2021/12/04 00:25:07;;;;;;;;;;;13.00;99.90;;;;;;5054720;28;19920;-79
2021/12/04 00:27:34;;;;;;;;;;;13.00;99.90;;;;;;5054787;28;19919;-78
2021/12/04 00:30:00;;;;;;;;;;;13.00;99.90;;;;;;5053180;28;19909;-79
2021/12/04 00:32:30;;;;;;;;;;;13.00;99.90;;;;;;5054302;28;19916;-79
2021/12/04 00:35:18;;;;;;;;;;;13.00;99.90;;;;;;5054710;28;20373;-78
2021/12/04 00:51:08;;;;;;;;;;;13.00;99.90;;;;;;5044382;28;19916;-78
2021/12/04 00:53:34;;;;;;;;;;;13.00;99.90;;;;;;5025213;28;19917;-78
2021/12/04 00:55:59;;;;;;;;;;;13.00;99.90;;;;;;5034098;28;19909;-79
2021/12/04 00:58:25;;;;;;;;;;;12.90;99.90;;;;;;5034162;28;19910;-79
2021/12/04 01:00:51;;;;;;;;;;;12.90;99.90;;;;;;5033958;28;19999;-79
2021/12/04 01:03:16;;;;;;;;;;;13.00;99.90;;;;;;5034163;28;19909;-78
2021/12/04 01:05:42;;;;;;;;;;;13.00;99.90;;;;;;5034095;28;19924;-79
2021/12/04 01:08:07;;;;;;;;;;;13.00;99.90;;;;;;5033913;28;19916;-79
2021/12/04 01:10:33;;;;;;;;;;;13.10;99.90;;;;;;5046959;28;19920;-79
2021/12/04 01:13:01;;;;;;;;;;;13.00;99.90;;;;;;5055961;28;19947;-79
2021/12/04 01:15:27;;;;;;;;;;;13.00;99.90;;;;;;5073712;28;19909;-80
2021/12/04 01:17:53;;;;;;;;;;;13.00;99.90;;;;;;5055878;28;19967;-79
2021/12/04 01:20:19;;;;;;;;;;;13.00;99.90;;;;;;5075491;28;20369;-79
2021/12/04 01:22:45;;;;;;;;;;;13.00;99.90;;;;;;5093821;28;19916;-79
2021/12/04 01:25:10;;;;;;;;;;;12.90;99.90;;;;;;5093867;28;20460;-79
2021/12/04 01:27:37;;;;;;;;;;;12.90;99.90;;;;;;5093893;28;19999;-79
2021/12/04 01:30:06;;;;;;;;;;;12.90;99.90;;;;;;5075658;28;19918;-79
2021/12/04 01:32:32;;;;;;;;;;;12.80;99.90;;;;;;5092180;28;20466;-79
2021/12/04 01:34:57;;;;;;;;;;;12.90;99.90;;;;;;5093879;28;19911;-78
2021/12/04 01:37:23;;;;;;;;;;;13.00;99.90;;;;;;5093614;28;19916;-80
2021/12/04 01:39:48;;;;;;;;;;;12.90;99.90;;;;;;5093697;28;19908;-78
2021/12/04 01:42:17;;;;;;;;;;;12.90;99.90;;;;;;5093162;28;19908;-79
2021/12/04 01:44:42;;;;;;;;;;;12.90;99.90;;;;;;5093192;28;19916;-78
2021/12/04 01:47:14;;;;;;;;;;;12.80;99.90;;;;;;5093662;28;20070;-79
2021/12/04 01:49:40;;;;;;;;;;;12.80;99.90;;;;;;5075404;28;19948;-78
2021/12/04 01:52:07;;;;;;;;;;;12.80;99.90;;;;;;5093109;28;20384;-79
2021/12/04 01:54:32;;;;;;;;;;;12.90;99.90;;;;;;5093499;28;19916;-79
2021/12/04 01:56:58;;;;;;;;;;;12.90;99.90;;;;;;5093436;28;20377;-79
2021/12/04 01:59:24;;;;;;;;;;;12.90;99.90;;;;;;5093426;28;19908;-79
2021/12/04 02:01:49;;;;;;;;;;;12.90;99.90;;;;;;5079444;28;19916;-79
2021/12/04 02:04:15;;;;;;;;;;;12.90;99.90;;;;;;5073257;28;19909;-79
2021/12/04 02:06:40;;;;;;;;;;;12.80;99.90;;;;;;5075282;28;19915;-79
2021/12/04 02:09:06;;;;;;;;;;;12.90;99.90;;;;;;5077040;28;19993;-78
2021/12/04 02:11:32;;;;;;;;;;;12.90;99.90;;;;;;5076493;28;20434;-78
2021/12/04 02:13:57;;;;;;;;;;;12.80;99.90;;;;;;5077352;28;19920;-78
2021/12/04 02:16:23;;;;;;;;;;;12.80;99.90;;;;;;5077234;28;20000;-78
2021/12/04 02:18:48;;;;;;;;;;;12.80;99.90;;;;;;5077125;28;19908;-78
2021/12/04 02:21:14;;;;;;;;;;;12.80;99.90;;;;;;5076869;28;19908;-79
2021/12/04 02:23:40;;;;;;;;;;;12.80;99.90;;;;;;5076858;28;19947;-78
2021/12/04 02:26:06;;;;;;;;;;;12.80;99.90;;;;;;5076957;28;19913;-79
2021/12/04 02:28:32;;;;;;;;;;;12.80;99.90;;;;;;5076985;28;19909;-79
2021/12/04 02:30:57;;;;;;;;;;;12.80;99.90;;;;;;5076637;28;19915;-79
2021/12/04 02:33:23;;;;;;;;;;;12.80;99.90;;;;;;5076997;28;19915;-79
2021/12/04 02:35:53;;;;;;;;;;;12.80;99.90;;;;;;5076806;28;20312;-78
2021/12/04 02:38:23;;;;;;;;;;;12.90;99.90;;;;;;5076676;28;19931;-79
2021/12/04 02:40:49;;;;;;;;;;;12.90;99.90;;;;;;5080258;28;19908;-78
2021/12/04 02:43:15;;;;;;;;;;;12.90;99.90;;;;;;5078736;28;20049;-79
2021/12/04 02:45:42;;;;;;;;;;;12.80;99.90;;;;;;5096863;28;20402;-79
2021/12/04 02:48:08;;;;;;;;;;;12.80;99.90;;;;;;5096898;28;19908;-78
2021/12/04 02:50:33;;;;;;;;;;;12.80;99.90;;;;;;5076200;28;19915;-79
2021/12/04 02:52:59;;;;;;;;;;;12.70;99.90;;;;;;5076218;28;20339;-79
2021/12/04 02:55:24;;;;;;;;;;;12.70;99.90;;;;;;5076536;28;19908;-79
2021/12/04 02:57:50;;;;;;;;;;;12.70;99.90;;;;;;5076551;28;19909;-79
2021/12/04 03:00:18;;;;;;;;;;;12.60;99.90;;;;;;5076377;28;19908;-78
2021/12/04 03:02:44;;;;;;;;;;;12.60;99.90;;;;;;5076061;28;20298;-79
2021/12/04 03:05:11;;;;;;;;;;;12.60;99.90;;;;;;5076184;28;20412;-79
2021/12/04 03:07:37;;;;;;;;;;;12.50;99.90;;;;;;5076071;28;19908;-77
2021/12/04 03:10:03;;;;;;;;;;;12.50;99.90;;;;;;5076003;28;20016;-78
2021/12/04 03:12:29;;;;;;;;;;;12.50;99.90;;;;;;5092890;28;19985;-78
2021/12/04 03:14:55;;;;;;;;;;;12.60;99.90;;;;;;5096299;28;20415;-78
2021/12/04 03:17:22;;;;;;;;;;;12.50;99.90;;;;;;5095998;28;19916;-79
2021/12/04 03:19:52;;;;;;;;;;;12.60;99.90;;;;;;5096136;28;19923;-79
2021/12/04 03:22:19;;;;;;;;;;;12.60;99.90;;;;;;5095739;28;19915;-79
2021/12/04 03:24:45;;;;;;;;;;;12.60;99.90;;;;;;5077878;28;19912;-78
2021/12/04 03:27:13;;;;;;;;;;;12.60;99.90;;;;;;5095999;28;19912;-78
2021/12/04 03:29:42;;;;;;;;;;;12.70;99.90;;;;;;5094832;28;19957;-79
2021/12/04 03:43:02;;;;;;;;;;;12.70;99.90;;;;;;5075340;28;19932;-78
2021/12/04 03:45:28;;;;;;;;;;;12.60;99.90;;;;;;5075543;28;19919;-79
2021/12/04 03:48:03;;;;;;;;;;;12.50;99.90;;;;;;5075543;28;19908;-79
2021/12/04 03:50:28;;;;;;;;;;;12.50;99.90;;;;;;5075689;28;20262;-78
2021/12/04 03:52:54;;;;;;;;;;;12.50;99.90;;;;;;5075075;28;19923;-79
2021/12/04 03:55:19;;;;;;;;;;;12.50;99.90;;;;;;5095517;28;19962;-78
2021/12/04 03:57:45;;;;;;;;;;;12.50;99.90;;;;;;5095654;28;19915;-79
2021/12/04 04:00:12;;;;;;;;;;;12.50;99.90;;;;;;5095512;28;20280;-78
2021/12/04 04:02:38;;;;;;;;;;;12.50;99.90;;;;;;5076924;28;20387;-78
2021/12/04 04:05:04;;;;;;;;;;;12.50;99.90;;;;;;5095291;28;19911;-79
2021/12/04 04:07:30;;;;;;;;;;;12.50;99.90;;;;;;5077000;28;20011;-79
2021/12/04 04:09:55;;;;;;;;;;;12.60;99.90;;;;;;5095437;28;19947;-78
2021/12/04 04:12:21;;;;;;;;;;;12.60;99.90;;;;;;5094652;28;19927;-79
2021/12/04 04:14:47;;;;;;;;;;;12.60;99.90;;;;;;5095275;28;19952;-78
2021/12/04 04:17:12;;;;;;;;;;;12.50;99.90;;;;;;5095139;28;20355;-79
2021/12/04 04:19:38;;;;;;;;;;;12.50;99.90;;;;;;5095021;28;19908;-78
2021/12/04 04:22:04;;;;;;;;;;;12.50;99.90;;;;;;5076525;28;20317;-78
2021/12/04 04:24:31;;;;;;;;;;;12.40;99.90;;;;;;5076874;28;19977;-78
2021/12/04 04:26:57;;;;;;;;;;;12.40;99.90;;;;;;5076968;28;20379;-79
2021/12/04 04:29:24;;;;;;;;;;;12.30;99.90;;;;;;5094295;28;19908;-79
2021/12/04 04:31:52;;;;;;;;;;;12.40;99.90;;;;;;5085725;28;19908;-79
2021/12/04 04:34:41;;;;;;;;;;;12.30;99.90;;;;;;5056796;28;19908;-78
2021/12/04 05:14:36;;;;;;;;;;;11.50;99.90;;;;;;5074148;28;19912;-79
2021/12/04 05:17:08;;;;;;;;;;;11.50;99.90;;;;;;5055755;28;21418;-78
2021/12/04 05:19:44;;;;;;;;;;;11.50;99.90;;;;;;5056290;28;20361;-78
2021/12/04 05:22:12;;;;;;;;;;;11.30;99.90;;;;;;5065710;28;19908;-78
2021/12/04 05:24:37;;;;;;;;;;;11.30;99.90;;;;;;5094046;28;20356;-79
2021/12/04 05:27:03;;;;;;;;;;;11.20;99.90;;;;;;5094147;28;19908;-78
2021/12/04 05:29:29;;;;;;;;;;;11.10;99.90;;;;;;5094298;28;19915;-78
2021/12/04 05:31:55;;;;;;;;;;;11.00;99.90;;;;;;5075850;28;20284;-78
2021/12/04 05:34:20;;;;;;;;;;;10.90;99.90;;;;;;5094106;28;19908;-78
2021/12/04 05:36:46;;;;;;;;;;;10.80;99.90;;;;;;5094067;28;20041;-78
2021/12/04 05:39:12;;;;;;;;;;;10.80;99.90;;;;;;5093779;28;20333;-78
2021/12/04 05:41:37;;;;;;;;;;;10.70;99.90;;;;;;5093409;28;19908;-78
2021/12/04 05:44:09;;;;;;;;;;;10.60;99.90;;;;;;5093858;28;19909;-78
2021/12/04 05:46:41;;;;;;;;;;;10.60;99.90;;;;;;5092322;28;19919;-78
2021/12/04 05:49:13;;;;;;;;;;;10.60;99.90;;;;;;5075591;28;20015;-78
2021/12/04 05:57:09;;;;;;;;;;;10.60;99.90;;;;;;5073540;28;19916;-78
2021/12/04 05:59:35;;;;;;;;;;;10.60;99.90;;;;;;5073490;28;19909;-78
2021/12/04 06:02:00;;;;;;;;;;;10.60;99.90;;;;;;5073157;28;19954;-78
2021/12/04 06:04:26;;;;;;;;;;;10.50;99.90;;;;;;5073461;28;19912;-79
2021/12/04 06:06:52;;;;;;;;;;;10.50;99.90;;;;;;5073355;28;20365;-77
2021/12/04 06:09:18;;;;;;;;;;;10.40;99.90;;;;;;5073462;28;19958;-78
2021/12/04 06:11:43;;;;;;;;;;;10.40;99.90;;;;;;5072823;28;20393;-78
2021/12/04 06:14:09;;;;;;;;;;;10.30;99.90;;;;;;5073271;28;19912;-78
2021/12/04 06:16:34;;;;;;;;;;;10.40;99.90;;;;;;5073515;28;19908;-78
2021/12/04 06:19:10;;;;;;;;;;;10.40;99.90;;;;;;5073186;28;19971;-78
2021/12/04 06:24:20;;;;;;;;;;;10.30;99.90;;;;;;5072973;28;19915;-78
2021/12/04 06:26:45;;;;;;;;;;;10.20;99.90;;;;;;5073229;28;19909;-78
2021/12/04 06:29:11;;;;;;;;;;;10.20;99.90;;;;;;5073276;28;19916;-78
2021/12/04 06:31:36;;;;;;;;;;;10.20;99.90;;;;;;5076231;28;19908;-78
2021/12/04 06:34:02;;;;;;;;;;;10.20;99.90;;;;;;5075404;28;19912;-78
2021/12/04 06:36:28;;;;;;;;;;;10.10;99.90;;;;;;5093233;28;20018;-78
2021/12/04 06:38:53;;;;;;;;;;;10.20;99.90;;;;;;5092962;28;20273;-77
2021/12/04 06:41:19;;;;;;;;;;;10.20;99.90;;;;;;5093161;28;19908;-78
2021/12/04 06:43:49;;;;;;;;;;;10.20;99.90;;;;;;5074975;28;19908;-78
2021/12/04 06:46:16;;;;;;;;;;;10.20;99.90;;;;;;5093465;28;19912;-77
2021/12/04 06:48:49;;;;;;;;;;;10.20;99.90;;;;;;5093182;28;19933;-78
2021/12/04 06:51:23;;;;;;;;;;;10.10;99.90;;;;;;5093213;28;19909;-78
2021/12/04 06:53:58;;;;;;;;;;;10.20;99.90;;;;;;5065421;28;19916;-78
2021/12/04 06:56:31;;;;;;;;;;;10.10;99.90;;;;;;5078563;28;19916;-78
2021/12/04 06:58:56;;;;;;;;;;;10.10;99.90;;;;;;5096925;28;19954;-78
2021/12/04 07:01:22;;;;;;;;;;;10.10;99.90;;;;;;5096691;28;19912;-77
2021/12/04 07:03:48;;;;;;;;;;;10.10;99.90;;;;;;5096946;28;19908;-77
2021/12/04 07:06:13;;;;;;;;;;;10.00;99.90;;;;;;5096787;28;20007;-78
2021/12/04 07:08:39;;;;;;;;;;;9.90;99.90;;;;;;5096367;28;19947;-78
2021/12/04 07:11:06;;;;;;;;;;;9.90;99.90;;;;;;5078453;28;19924;-78
2021/12/04 07:13:32;;;;;;;;;;;9.80;99.90;;;;;;5096211;28;20502;-78
2021/12/04 07:16:04;;;;;;;;;;;9.80;99.90;;;;;;5096727;28;19968;-77
2021/12/04 07:18:30;;;;;;;;;;;9.80;99.90;;;;;;5096729;28;19912;-78
2021/12/04 07:20:56;;;;;;;;;;;9.80;99.90;;;;;;5096114;28;20017;-78
2021/12/04 07:23:21;;;;;;;;;;;9.70;99.90;;;;;;5096001;28;19915;-78
2021/12/04 07:25:47;;;;;;;;;;;9.70;99.90;;;;;;5096327;28;19912;-77
2021/12/04 07:28:13;;;;;;;;;;;9.70;99.90;;;;;;5078225;28;19935;-77
2021/12/04 07:30:38;;;;;;;;;;;9.70;99.90;;;;;;5096273;28;19908;-77
2021/12/04 07:33:04;;;;;;;;;;;9.70;99.90;;;;;;5095765;28;19908;-78
2021/12/04 07:35:29;;;;;;;;;;;9.70;99.90;;;;;;5096304;28;19963;-78
2021/12/04 07:37:55;;;;;;;;;;;9.80;99.90;;;;;;5096239;28;20135;-78
2021/12/04 07:40:21;;;;;;;;;;;9.80;99.90;;;;;;5096199;28;19908;-76
2021/12/04 07:42:46;;;;;;;;;;;9.90;99.90;;;;;;5095705;28;19943;-78
2021/12/04 07:45:12;;;;;;;;;;;10.00;99.90;;;;;;5096031;28;20054;-78
2021/12/04 07:47:37;;;;;;;;;;;10.10;99.90;;;;;;5096136;28;19915;-77
2021/12/04 07:50:05;;;;;;;;;;;10.20;99.90;;;;;;5095908;28;20233;-78
2021/12/04 07:52:30;;;;;;;;;;;10.00;99.90;;;;;;5071145;28;20003;-78
2021/12/04 07:54:56;;;;;;;;;;;10.00;99.90;;;;;;5095804;28;20003;-77
2021/12/04 07:57:22;;;;;;;;;;;10.10;99.90;;;;;;5095809;28;20372;-78
2021/12/04 07:59:48;;;;;;;;;;;10.10;99.90;;;;;;5095612;28;20433;-78
2021/12/04 08:02:13;;;;;;;;;;;10.20;99.90;;;;;;5095249;28;19908;-78
2021/12/04 08:04:39;;;;;;;;;;;10.20;99.90;;;;;;5094720;28;20273;-78
2021/12/04 08:07:05;;;;;;;;;;;10.30;99.90;;;;;;5095351;28;19922;-78
2021/12/04 08:09:30;;;;;;;;;;;10.30;99.90;;;;;;5095676;28;20425;-77
2021/12/04 08:11:56;;;;;;;;;;;10.30;99.90;;;;;;5094839;28;19935;-78
2021/12/04 08:14:22;;;;;;;;;;;10.30;99.90;;;;;;5095484;28;20372;-78
2021/12/04 08:16:47;;;;;;;;;;;10.20;99.90;;;;;;5095362;28;19938;-78
2021/12/04 08:19:13;;;;;;;;;;;10.20;99.90;;;;;;5095152;28;19912;-78
2021/12/04 08:21:39;;;;;;;;;;;10.10;99.90;;;;;;5095632;28;19995;-78
2021/12/04 08:24:06;;;;;;;;;;;10.10;99.90;;;;;;5075116;28;19962;-78
2021/12/04 08:26:35;;;;;;;;;;;10.20;99.90;;;;;;5075076;28;19919;-78
2021/12/04 08:29:00;;;;;;;;;;;10.20;99.90;;;;;;5075205;28;20335;-79
2021/12/04 08:31:26;;;;;;;;;;;10.20;99.90;;;;;;5075503;28;19951;-78
2021/12/04 08:33:52;;;;;;;;;;;10.20;99.90;;;;;;5074947;28;19955;-78
2021/12/04 08:36:18;;;;;;;;;;;10.30;99.90;;;;;;5075422;28;19916;-79
2021/12/04 08:38:48;;;;;;;;;;;10.30;99.90;;;;;;5075221;28;19908;-78
2021/12/04 08:41:15;;;;;;;;;;;10.30;99.90;;;;;;5075080;28;19908;-78
2021/12/04 08:43:40;;;;;;;;;;;10.30;99.90;;;;;;5074782;28;19953;-78
2021/12/04 08:46:06;;;;;;;;;;;10.30;99.90;;;;;;5075030;28;19998;-78
2021/12/04 08:48:33;;;;;;;;;;;10.30;99.90;;;;;;5074944;28;19909;-78
2021/12/04 08:50:59;;;;;;;;;;;10.20;99.90;;;;;;5074943;28;19909;-78
2021/12/04 08:53:25;;;;;;;;;;;10.20;99.90;;;;;;5050752;28;20265;-78
2021/12/04 08:55:51;;;;;;;;;;;10.20;99.90;;;;;;5075079;28;20007;-78
2021/12/04 08:58:17;;;;;;;;;;;10.30;99.90;;;;;;5075132;28;20311;-77
2021/12/04 09:00:51;;;;;;;;;;;10.20;99.90;;;;;;5074859;28;19916;-79
2021/12/04 09:03:25;;;;;;;;;;;10.10;99.90;;;;;;5056618;28;19995;-78
2021/12/04 09:05:51;;;;;;;;;;;10.10;99.90;;;;;;5074447;28;19919;-78
2021/12/04 09:08:18;;;;;;;;;;;10.00;99.90;;;;;;5074610;28;19908;-78
2021/12/04 09:10:46;;;;;;;;;;;9.90;99.90;;;;;;5074518;28;20396;-78
2021/12/04 09:13:11;;;;;;;;;;;9.90;99.90;;;;;;5074214;28;19931;-78
2021/12/04 09:15:37;;;;;;;;;;;10.00;99.90;;;;;;5074419;28;20340;-78
2021/12/04 09:18:06;;;;;;;;;;;10.10;99.90;;;;;;5074524;28;19916;-78
2021/12/04 09:20:33;;;;;;;;;;;10.00;99.90;;;;;;5074582;28;20372;-78
2021/12/04 09:22:58;;;;;;;;;;;9.90;99.90;;;;;;5074165;28;19915;-78
2021/12/04 09:25:26;;;;;;;;;;;9.90;99.90;;;;;;5074219;28;19912;-79
2021/12/04 10:00:28;;;;;;;;;;;10.30;99.90;;;;;;5073995;28;20031;-78
2021/12/04 10:34:29;;;;;;;;;;;12.40;99.90;;;;;;5077907;28;20391;-79
2021/12/04 10:37:03;;;;;;;;;;;12.40;99.90;;;;;;5059406;28;19909;-78
2021/12/04 10:39:29;;;;;;;;;;;11.60;99.90;;;;;;5077480;28;20265;-78
2021/12/04 10:41:55;;;;;;;;;;;11.20;99.90;;;;;;5059349;28;19909;-79
2021/12/04 10:44:23;;;;;;;;;;;11.10;99.90;;;;;;5076784;28;19914;-78
2021/12/04 10:46:56;;;;;;;;;;;10.90;99.90;;;;;;5059548;28;19908;-78
2021/12/04 10:52:27;;;;;;;;;;;10.30;99.90;;;;;;5077295;28;19942;-78
2021/12/04 10:55:11;;;;;;;;;;;10.20;99.90;;;;;;5052235;28;20638;-79
2021/12/04 11:02:56;;;;;;;;;;;11.90;99.90;;;;;;5077221;28;20000;-78
2021/12/04 11:05:50;;;;;;;;;;;14.90;98.60;;;;;;5058574;28;19948;-79
2021/12/04 11:37:20;;;;;;;;;;;10.30;99.90;;;;;;5096015;28;19994;-79
2021/12/04 11:42:56;;;;;;;;;;;18.10;93.50;;;;;;5073858;28;19947;-80
2021/12/04 11:45:26;;;;;;;;;;;20.70;81.40;;;;;;5073970;28;19912;-79
2021/12/04 11:47:54;;;;;;;;;;;21.30;73.40;;;;;;5086020;28;20322;-80
2021/12/04 11:50:20;;;;;;;;;;;22.80;67.30;;;;;;5077920;28;20011;-80
2021/12/04 11:52:46;;;;;;;;;;;22.90;65.00;;;;;;5077890;28;19966;-80
2021/12/04 11:55:12;;;;;;;;;;;23.60;63.10;;;;;;5094504;28;19998;-80
2021/12/04 11:57:38;;;;;;;;;;;23.90;59.70;;;;;;5077767;28;19909;-80
2021/12/04 12:00:09;;;;;;;;;;;21.40;64.10;;;;;;5096220;28;19909;-79
2021/12/04 12:02:35;;;;;;;;;;;20.20;64.50;;;;;;5095907;28;19915;-79
2021/12/04 12:05:00;;;;;;;;;;;16.70;68.80;;;;;;5095723;28;19912;-80
2021/12/04 12:07:30;;;;;;;;;;;17.00;69.10;;;;;;5095964;28;19983;-80
2021/12/04 12:10:09;;;;;;;;;;;16.10;76.80;;;;;;5095840;28;19914;-78
2021/12/04 12:12:38;;;;;;;;;;;12.40;87.70;;;;;;5095949;28;19952;-79
2021/12/04 12:15:16;;;;;;;;;;;11.60;94.20;;;;;;5095615;28;19912;-78
2021/12/04 12:17:42;;;;;;;;;;;11.90;96.80;;;;;;5096157;28;19908;-79
2021/12/04 12:20:13;;;;;;;;;;;13.00;95.00;;;;;;5095839;28;19908;-79
2021/12/04 12:22:40;;;;;;;;;;;15.80;85.00;;;;;;5095909;28;19908;-79
2021/12/04 12:38:35;;;;;;;;;;;15.00;84.00;;;;;;5095443;28;20330;-79
2021/12/04 12:41:03;;;;;;;;;;;14.70;81.70;;;;;;5095359;28;19912;-79
2021/12/04 12:43:49;;;;;;;;;;;13.90;84.80;;;;;;5095088;28;19914;-79
2021/12/04 12:46:15;;;;;;;;;;;14.10;86.30;;;;;;5095510;28;19919;-79
2021/12/04 12:48:42;;;;;;;;;;;14.50;81.60;;;;;;5076904;28;19908;-79
2021/12/04 12:51:08;;;;;;;;;;;15.50;83.00;;;;;;5094755;28;20314;-80
2021/12/04 12:53:39;;;;;;;;;;;15.60;81.40;;;;;;5095176;28;19908;-79
2021/12/04 12:56:07;;;;;;;;;;;15.70;80.50;;;;;;5094998;28;20451;-80
2021/12/04 12:58:42;;;;;;;;;;;16.60;78.60;;;;;;5095157;28;19908;-80
2021/12/04 13:12:21;;;;;;;;;;;18.60;67.50;;;;;;5094239;28;20402;-80
2021/12/04 13:14:53;;;;;;;;;;;19.10;66.80;;;;;;5076334;28;19947;-80
2021/12/04 13:17:21;;;;;;;;;;;19.10;64.30;;;;;;5094494;28;19908;-80
2021/12/04 13:19:49;;;;;;;;;;;19.90;64.30;;;;;;5076419;28;19958;-80
2021/12/04 13:22:19;;;;;;;;;;;19.50;63.80;;;;;;5094446;28;19915;-80
2021/12/04 13:24:46;;;;;;;;;;;20.00;61.70;;;;;;5093009;28;19908;-80
2021/12/04 13:29:46;;;;;;;;;;;18.70;61.60;;;;;;5094862;28;20312;-80
2021/12/04 13:32:13;;;;;;;;;;;18.00;62.20;;;;;;5094399;28;19908;-79
2021/12/04 13:34:40;;;;;;;;;;;15.90;66.60;;;;;;5094199;28;19908;-79
2021/12/04 13:37:07;;;;;;;;;;;15.70;69.30;;;;;;5076162;28;19909;-79
2021/12/04 13:39:34;;;;;;;;;;;14.50;69.90;;;;;;5075870;28;19950;-79
2021/12/04 13:42:01;;;;;;;;;;;14.10;73.50;;;;;;5094487;28;19915;-79
2021/12/04 13:44:27;;;;;;;;;;;12.70;77.30;;;;;;5094239;28;20265;-79
2021/12/04 13:46:55;;;;;;;;;;;12.20;83.60;;;;;;5094298;28;19912;-79
2021/12/04 13:49:23;;;;;;;;;;;11.50;90.20;;;;;;5094506;28;19908;-79
2021/12/04 13:51:56;;;;;;;;;;;10.80;93.10;;;;;;5093963;28;19908;-79
2021/12/04 13:54:23;;;;;;;;;;;10.00;95.50;;;;;;5093967;28;19908;-79
2021/12/04 13:56:49;;;;;;;;;;;9.50;97.90;;;;;;5093925;28;19962;-79
2021/12/04 13:59:15;;;;;;;;;;;8.70;99.90;;;;;;5092601;28;19912;-78
2021/12/04 14:01:42;;;;;;;;;;;9.00;99.90;;;;;;5093928;28;19908;-79
2021/12/04 14:04:16;;;;;;;;;;;9.00;99.90;;;;;;5075927;28;19912;-77
2021/12/04 14:06:58;;;;;;;;;;;9.20;99.90;;;;;;5094170;28;19912;-78
2021/12/04 14:09:30;;;;;;;;;;;10.30;99.90;;;;;;5094399;28;19908;-79
2021/12/04 14:11:56;;;;;;;;;;;10.80;99.30;;;;;;5094058;28;19920;-80
2021/12/04 14:14:23;;;;;;;;;;;12.10;97.10;;;;;;5094308;28;19958;-79
2021/12/04 14:16:54;;;;;;;;;;;12.40;95.60;;;;;;5094508;28;19915;-79
2021/12/04 14:19:24;;;;;;;;;;;13.10;93.40;;;;;;5075951;28;20330;-79
2021/12/04 14:21:57;;;;;;;;;;;12.30;92.80;;;;;;5094342;28;19953;-79
2021/12/04 14:24:30;;;;;;;;;;;11.50;95.10;;;;;;5094076;28;19908;-79
2021/12/04 14:26:57;;;;;;;;;;;10.00;97.30;;;;;;5094050;28;19916;-79
2021/12/04 14:29:25;;;;;;;;;;;9.80;98.60;;;;;;5093871;28;19915;-77
2021/12/04 14:31:51;;;;;;;;;;;9.60;99.60;;;;;;5093999;28;20282;-78
2021/12/04 14:34:24;;;;;;;;;;;9.30;99.90;;;;;;5093722;28;19915;-78
2021/12/04 14:37:09;;;;;;;;;;;9.40;99.90;;;;;;5093696;28;19908;-79
2021/12/04 14:39:35;;;;;;;;;;;10.00;99.90;;;;;;5075463;28;20490;-79
2021/12/04 14:42:08;;;;;;;;;;;9.60;99.90;;;;;;5093775;28;19946;-78
2021/12/04 14:44:35;;;;;;;;;;;9.60;99.90;;;;;;5074980;28;20370;-79
2021/12/04 14:47:03;;;;;;;;;;;10.10;99.90;;;;;;5093789;28;19947;-79
2021/12/04 14:49:28;;;;;;;;;;;9.30;99.90;;;;;;5093442;28;20279;-78
2021/12/04 14:51:54;;;;;;;;;;;8.90;99.90;;;;;;5093583;28;19908;-78
2021/12/04 14:54:26;;;;;;;;;;;9.00;99.90;;;;;;5093476;28;20022;-78
2021/12/04 14:56:51;;;;;;;;;;;8.70;99.90;;;;;;5093647;28;19908;-78
2021/12/04 14:59:17;;;;;;;;;;;9.00;99.90;;;;;;5093475;28;20016;-78
2021/12/04 15:01:43;;;;;;;;;;;9.10;99.90;;;;;;5093830;28;19916;-78
2021/12/04 15:04:09;;;;;;;;;;;9.00;99.90;;;;;;5093414;28;19912;-79
2021/12/04 15:06:37;;;;;;;;;;;8.80;99.90;;;;;;5091912;28;19912;-79
2021/12/04 15:09:07;;;;;;;;;;;8.70;99.90;;;;;;5075089;28;20364;-78
2021/12/04 15:11:34;;;;;;;;;;;8.60;99.90;;;;;;5093163;28;19920;-79
2021/12/04 15:14:07;;;;;;;;;;;8.50;99.90;;;;;;5095914;28;19930;-78
2021/12/04 15:16:37;;;;;;;;;;;8.50;99.90;;;;;;5097078;28;20327;-79
2021/12/04 15:19:09;;;;;;;;;;;8.40;99.90;;;;;;5097101;28;19920;-79
2021/12/04 15:21:36;;;;;;;;;;;8.40;99.90;;;;;;5097273;28;19947;-78
2021/12/04 15:24:01;;;;;;;;;;;8.40;99.90;;;;;;5097308;28;19915;-79
2021/12/04 15:26:27;;;;;;;;;;;8.40;99.90;;;;;;5095751;28;19998;-78
2021/12/04 15:28:54;;;;;;;;;;;8.60;99.90;;;;;;5096923;28;20006;-78
2021/12/04 15:31:22;;;;;;;;;;;8.60;99.90;;;;;;5078932;28;19977;-78
2021/12/04 15:33:49;;;;;;;;;;;9.30;99.90;;;;;;5079012;28;19915;-78
2021/12/04 15:36:26;;;;;;;;;;;9.70;99.90;;;;;;5097026;28;19908;-79
2021/12/04 15:38:53;;;;;;;;;;;9.80;99.90;;;;;;5096811;28;19908;-79
2021/12/04 15:41:33;;;;;;;;;;;9.60;99.90;;;;;;5096880;28;20345;-78
2021/12/04 15:44:29;;;;;;;;;;;9.60;99.90;;;;;;5096867;28;19908;-78
2021/12/04 15:54:44;;;;;;;;;;;9.00;99.90;;;;;;5096455;28;19961;-79
2021/12/04 15:57:11;;;;;;;;;;;8.90;99.90;;;;;;5078013;28;19908;-79
2021/12/04 15:59:42;;;;;;;;;;;8.80;99.90;;;;;;5096971;28;19912;-78
2021/12/04 16:02:09;;;;;;;;;;;8.70;99.90;;;;;;5096445;28;20437;-78
2021/12/04 16:04:35;;;;;;;;;;;8.70;99.90;;;;;;5096159;28;19908;-79
2021/12/04 16:07:02;;;;;;;;;;;8.70;99.90;;;;;;5096421;28;20379;-79
2021/12/04 16:09:31;;;;;;;;;;;8.70;99.90;;;;;;5096263;28;19909;-78
2021/12/04 16:12:13;;;;;;;;;;;8.80;99.90;;;;;;5095932;28;19928;-78
2021/12/04 16:14:40;;;;;;;;;;;8.70;99.90;;;;;;5095986;28;19961;-79
2021/12/04 16:17:06;;;;;;;;;;;8.60;99.90;;;;;;5096101;28;19908;-78
2021/12/04 16:19:33;;;;;;;;;;;8.70;99.90;;;;;;5096163;28;20280;-79
2021/12/04 16:22:02;;;;;;;;;;;8.70;99.90;;;;;;5096005;28;19961;-79
2021/12/04 16:24:29;;;;;;;;;;;8.50;99.90;;;;;;5094614;28;19954;-78
2021/12/04 16:27:00;;;;;;;;;;;8.40;99.90;;;;;;5095750;28;19935;-78
2021/12/04 16:29:29;;;;;;;;;;;8.40;99.90;;;;;;5095739;28;20284;-79
2021/12/04 16:37:40;;;;;;;;;;;8.50;99.90;;;;;;5095256;28;19915;-78
2021/12/04 16:39:44;;;;;;;;;;;8.40;99.90;;;;;;5086558;28;19919;-78
2021/12/04 16:42:10;;;;;;;;;;;8.40;99.90;;;;;;5095165;28;19908;-78
2021/12/04 16:44:37;;;;;;;;;;;8.30;99.90;;;;;;5095135;28;19915;-79
2021/12/04 16:47:04;;;;;;;;;;;8.30;99.90;;;;;;5095092;28;19912;-78
2021/12/04 16:49:30;;;;;;;;;;;8.10;99.90;;;;;;5076815;28;19931;-79
2021/12/04 16:59:54;;;;;;;;;;;8.30;99.90;;;;;;5094974;28;19931;-79
2021/12/04 17:02:21;;;;;;;;;;;8.20;99.90;;;;;;5094913;28;19908;-79
2021/12/04 17:04:47;;;;;;;;;;;8.20;99.90;;;;;;5094685;28;19908;-78
2021/12/04 17:07:14;;;;;;;;;;;8.30;99.90;;;;;;5076604;28;19912;-79
2021/12/04 17:09:40;;;;;;;;;;;8.30;99.90;;;;;;5094520;28;19908;-79
2021/12/04 17:12:05;;;;;;;;;;;8.50;99.90;;;;;;5076219;28;19931;-79
2021/12/04 17:14:32;;;;;;;;;;;8.50;99.90;;;;;;5094662;28;19995;-79
2021/12/04 17:16:59;;;;;;;;;;;8.40;99.90;;;;;;5094522;28;20093;-79
2021/12/04 17:19:25;;;;;;;;;;;8.40;99.90;;;;;;5076330;28;19951;-78
2021/12/04 17:21:52;;;;;;;;;;;8.30;99.90;;;;;;5094774;28;19916;-78
2021/12/04 17:24:18;;;;;;;;;;;7.90;99.90;;;;;;5094731;28;19908;-78
2021/12/04 17:26:44;;;;;;;;;;;7.70;99.90;;;;;;5094421;28;20380;-78
2021/12/04 17:29:13;;;;;;;;;;;7.60;99.90;;;;;;5094507;28;19908;-78
2021/12/04 17:31:43;;;;;;;;;;;7.60;99.90;;;;;;5076224;28;19946;-78
2021/12/04 17:34:09;;;;;;;;;;;7.50;99.90;;;;;;5094567;28;20394;-78
2021/12/04 17:36:37;;;;;;;;;;;7.40;99.90;;;;;;5094012;28;19908;-79
2021/12/04 17:39:04;;;;;;;;;;;7.30;99.90;;;;;;5094129;28;19915;-78
2021/12/04 17:41:31;;;;;;;;;;;7.40;99.90;;;;;;5094271;28;19915;-78
2021/12/04 17:43:59;;;;;;;;;;;7.30;99.90;;;;;;5094454;28;19915;-78
2021/12/04 17:46:26;;;;;;;;;;;7.30;99.90;;;;;;5094116;28;19912;-79
2021/12/04 17:48:53;;;;;;;;;;;7.10;99.90;;;;;;5093950;28;19944;-78
2021/12/04 17:51:21;;;;;;;;;;;7.20;99.90;;;;;;5094273;28;20432;-79
2021/12/04 17:53:47;;;;;;;;;;;7.20;99.90;;;;;;5075799;28;19958;-78
2021/12/04 17:56:13;;;;;;;;;;;7.10;99.90;;;;;;5093925;28;19918;-79
2021/12/04 17:58:39;;;;;;;;;;;7.10;99.90;;;;;;5093846;28;19908;-79
2021/12/04 18:01:13;;;;;;;;;;;7.10;99.90;;;;;;5075720;28;19935;-79
2021/12/04 18:03:39;;;;;;;;;;;7.00;99.90;;;;;;5094101;28;19951;-78
2021/12/04 18:06:08;;;;;;;;;;;7.00;99.90;;;;;;5093671;28;19960;-77